STORD / SOERSTOKKEN current weather conditions

sailwx.info

Wind from 130 at 12 knots

Air temperature 7.0° C
Visibility: greater than 5.4 NM
Dewpoint -3.0° C

Last reported at 2014-Nov-28 18:20 UTC.
Time now 2014-Nov-28 20:34 UTC

Location: N 59°48' E 005°21'.
View on Google Maps.

See reports from other nearby stations

  
Tides and Currents Weather Stations Pressure Air Temp Water Temp Dewpoint Dewpoint Depression Visibility Wind Speed Wind Dir Waves Ship Positions
date/time (UTC)wind fromknots sea level pressurealtimeterstation pressurevisibilityair tempwater tempwave heightnotes
2014-Nov-28 19:20 140 9 5.4 7.0
2014-Nov-28 18:20 130 12 5.4 7.0
2014-Nov-28 17:20 130 11 7.0
2014-Nov-28 16:20 140 15 gusting 25 5.4 7.0
2014-Nov-28 15:50 130 17 5.4 7.0
2014-Nov-28 15:20 120 11 5.4 7.0
2014-Nov-28 14:50 130 11 5.4 8.0
2014-Nov-28 14:20 120 10 5.4 7.0
2014-Nov-28 13:50 120 11 5.4 8.0
2014-Nov-28 13:20 120 10 8.0
2014-Nov-28 12:50 120 12 5.4 8.0
2014-Nov-28 11:50 120 12 8.0
2014-Nov-28 11:20 130 10 8.0
2014-Nov-28 10:50 120 12 5.4 7.0
2014-Nov-28 09:50 130 13 5.4 7.0
2014-Nov-28 09:20 130 17 7.0
2014-Nov-28 08:50 130 14 5.4 7.0
2014-Nov-28 08:20 130 14 7.0
2014-Nov-28 07:50 130 13 5.4 7.0
2014-Nov-28 07:20 130 13 7.0
2014-Nov-27 18:20 110 16 6.0
2014-Nov-27 17:50 110 19 5.4 7.0
2014-Nov-27 17:20 110 16 gusting 26 6.0
2014-Nov-27 16:50 110 22 5.4 7.0
2014-Nov-27 15:50 110 20 5.4 7.0
2014-Nov-27 14:20 130 16 7.0
2014-Nov-27 13:50 130 17 5.4 7.0
2014-Nov-27 11:20 150 5 8.0
2014-Nov-27 10:50 060 2 6.0
2014-Nov-27 10:20 340 1 6.0
2014-Nov-27 09:50 250 2 7.0
2014-Nov-27 09:20 020 2 5.0
2014-Nov-27 08:50 030 2 5.4 5.0
2014-Nov-27 08:20 140 4 6.0
2014-Nov-27 07:20 150 5 6.0
2014-Nov-27 06:50 140 6 5.4 5.0
2014-Nov-27 06:20 180 2 5.0
2014-Nov-27 05:20 320 2 5.0
2014-Nov-27 04:50 100 0 5.4 5.0